<?xml version="1.0" encoding="utf-8"?>
<gpx xmlns:xsi="http://www.w3.org/2001/XMLSchema-instance" xmlns:xsd="http://www.w3.org/2001/XMLSchema" version="1.1" creator="Shapelink.com" xmlns="http://www.topografix.com/GPX/1/1" xmlns:gpxtpx="http://www.garmin.com/xmlschemas/TrackPointExtension/v1">
  <metadata>
    <name>Löpning 3.57 km, 2019-11-10</name>
    <desc></desc>
    <author><name>Per Rooth</name></author> 
    <time>2019-11-10T10:17:06Z</time>
  </metadata>
  <trk>
    <name>Löpning 3.57 km, 2019-11-10</name>
    <trkseg>
      <trkpt lat="57.739484423298" lon="12.947383299202">
        <ele>149.8</ele>
        <time>2019-11-10T10:17:06Z</time>
      </trkpt>
      <trkpt lat="57.739631274186" lon="12.947615477832">
        <ele>150.6</ele>
        <time>2019-11-10T10:17:13Z</time>
      </trkpt>
      <trkpt lat="57.739643930855" lon="12.947664176671">
        <ele>151</ele>
        <time>2019-11-10T10:17:14Z</time>
      </trkpt>
      <trkpt lat="57.739749207519" lon="12.947796945967">
        <ele>152.2</ele>
        <time>2019-11-10T10:17:18Z</time>
      </trkpt>
      <trkpt lat="57.739873008182" lon="12.948051839546">
        <ele>153.4</ele>
        <time>2019-11-10T10:17:24Z</time>
      </trkpt>
      <trkpt lat="57.739884323747" lon="12.948264739806">
        <ele>154.6</ele>
        <time>2019-11-10T10:17:27Z</time>
      </trkpt>
      <trkpt lat="57.739870242155" lon="12.948314863568">
        <ele>155</ele>
        <time>2019-11-10T10:17:28Z</time>
      </trkpt>
      <trkpt lat="57.739847946301" lon="12.948341769467">
        <ele>155.8</ele>
        <time>2019-11-10T10:17:30Z</time>
      </trkpt>
      <trkpt lat="57.739831853053" lon="12.948326262952">
        <ele>157.2</ele>
        <time>2019-11-10T10:17:32Z</time>
      </trkpt>
      <trkpt lat="57.739828416474" lon="12.948307571315">
        <ele>158.4</ele>
        <time>2019-11-10T10:17:34Z</time>
      </trkpt>
      <trkpt lat="57.739817100909" lon="12.948284856366">
        <ele>159.4</ele>
        <time>2019-11-10T10:17:37Z</time>
      </trkpt>
      <trkpt lat="57.739740657981" lon="12.948191565819">
        <ele>160.6</ele>
        <time>2019-11-10T10:17:44Z</time>
      </trkpt>
      <trkpt lat="57.739705202544" lon="12.948159882237">
        <ele>161.2</ele>
        <time>2019-11-10T10:17:46Z</time>
      </trkpt>
      <trkpt lat="57.739685085984" lon="12.94813029413">
        <ele>161.6</ele>
        <time>2019-11-10T10:17:48Z</time>
      </trkpt>
      <trkpt lat="57.739673938057" lon="12.948131886691">
        <ele>161.6</ele>
        <time>2019-11-10T10:17:49Z</time>
      </trkpt>
      <trkpt lat="57.739621132087" lon="12.948103639688">
        <ele>162</ele>
        <time>2019-11-10T10:17:53Z</time>
      </trkpt>
      <trkpt lat="57.739545024435" lon="12.948027029122">
        <ele>162.6</ele>
        <time>2019-11-10T10:17:57Z</time>
      </trkpt>
      <trkpt lat="57.73953622344" lon="12.948018563403">
        <ele>162.6</ele>
        <time>2019-11-10T10:17:58Z</time>
      </trkpt>
      <trkpt lat="57.739513843767" lon="12.948041529809">
        <ele>162.6</ele>
        <time>2019-11-10T10:18:00Z</time>
      </trkpt>
      <trkpt lat="57.739504036944" lon="12.948053515926">
        <ele>162.6</ele>
        <time>2019-11-10T10:18:02Z</time>
      </trkpt>
      <trkpt lat="57.739478472149" lon="12.948123253334">
        <ele>162.8</ele>
        <time>2019-11-10T10:18:06Z</time>
      </trkpt>
      <trkpt lat="57.73944988987" lon="12.948258956295">
        <ele>162.4</ele>
        <time>2019-11-10T10:18:11Z</time>
      </trkpt>
      <trkpt lat="57.739437149382" lon="12.948294076456">
        <ele>162.2</ele>
        <time>2019-11-10T10:18:13Z</time>
      </trkpt>
      <trkpt lat="57.739410997854" lon="12.94835912">
        <ele>161.6</ele>
        <time>2019-11-10T10:18:17Z</time>
      </trkpt>
      <trkpt lat="57.739407309818" lon="12.948374626515">
        <ele>161.6</ele>
        <time>2019-11-10T10:18:18Z</time>
      </trkpt>
      <trkpt lat="57.739387947629" lon="12.948441933172">
        <ele>161.6</ele>
        <time>2019-11-10T10:18:21Z</time>
      </trkpt>
      <trkpt lat="57.739372441114" lon="12.948488368898">
        <ele>162.2</ele>
        <time>2019-11-10T10:18:24Z</time>
      </trkpt>
      <trkpt lat="57.739367998707" lon="12.948529188751">
        <ele>162.8</ele>
        <time>2019-11-10T10:18:26Z</time>
      </trkpt>
      <trkpt lat="57.739367663431" lon="12.948567242577">
        <ele>163.2</ele>
        <time>2019-11-10T10:18:28Z</time>
      </trkpt>
      <trkpt lat="57.739373195485" lon="12.948657180364">
        <ele>163.8</ele>
        <time>2019-11-10T10:18:32Z</time>
      </trkpt>
      <trkpt lat="57.739379984824" lon="12.948727253048">
        <ele>164.2</ele>
        <time>2019-11-10T10:18:34Z</time>
      </trkpt>
      <trkpt lat="57.739383756679" lon="12.948818867215">
        <ele>165</ele>
        <time>2019-11-10T10:18:36Z</time>
      </trkpt>
      <trkpt lat="57.73939037838" lon="12.948950463045">
        <ele>166</ele>
        <time>2019-11-10T10:18:40Z</time>
      </trkpt>
      <trkpt lat="57.739417032822" lon="12.949029504362">
        <ele>167.2</ele>
        <time>2019-11-10T10:18:43Z</time>
      </trkpt>
      <trkpt lat="57.739410997854" lon="12.949078035563">
        <ele>167.8</ele>
        <time>2019-11-10T10:18:46Z</time>
      </trkpt>
      <trkpt lat="57.739416110813" lon="12.949123297823">
        <ele>168.2</ele>
        <time>2019-11-10T10:18:48Z</time>
      </trkpt>
      <trkpt lat="57.739413344786" lon="12.949159004717">
        <ele>168.8</ele>
        <time>2019-11-10T10:18:50Z</time>
      </trkpt>
      <trkpt lat="57.739404795248" lon="12.9492140738">
        <ele>169.4</ele>
        <time>2019-11-10T10:18:52Z</time>
      </trkpt>
      <trkpt lat="57.739404292334" lon="12.949230334686">
        <ele>169.8</ele>
        <time>2019-11-10T10:18:53Z</time>
      </trkpt>
      <trkpt lat="57.739398592642" lon="12.949260509526">
        <ele>170.8</ele>
        <time>2019-11-10T10:18:56Z</time>
      </trkpt>
      <trkpt lat="57.739392809131" lon="12.949265119571">
        <ele>171</ele>
        <time>2019-11-10T10:18:57Z</time>
      </trkpt>
      <trkpt lat="57.739380655376" lon="12.949284062665">
        <ele>171.8</ele>
        <time>2019-11-10T10:18:59Z</time>
      </trkpt>
      <trkpt lat="57.739369842725" lon="12.949295462049">
        <ele>172</ele>
        <time>2019-11-10T10:19:00Z</time>
      </trkpt>
      <trkpt lat="57.739360790273" lon="12.949317338808">
        <ele>172.6</ele>
        <time>2019-11-10T10:19:02Z</time>
      </trkpt>
      <trkpt lat="57.739359197712" lon="12.949328822011">
        <ele>172.8</ele>
        <time>2019-11-10T10:19:03Z</time>
      </trkpt>
      <trkpt lat="57.739355258219" lon="12.949414568848">
        <ele>174</ele>
        <time>2019-11-10T10:19:06Z</time>
      </trkpt>
      <trkpt lat="57.739352324554" lon="12.949564688677">
        <ele>175</ele>
        <time>2019-11-10T10:19:10Z</time>
      </trkpt>
      <trkpt lat="57.739329106691" lon="12.949624367805">
        <ele>175.8</ele>
        <time>2019-11-10T10:19:13Z</time>
      </trkpt>
      <trkpt lat="57.73914395052" lon="12.949579105545">
        <ele>176</ele>
        <time>2019-11-10T10:19:21Z</time>
      </trkpt>
      <trkpt lat="57.73893021207" lon="12.949591678395">
        <ele>175.8</ele>
        <time>2019-11-10T10:19:27Z</time>
      </trkpt>
      <trkpt lat="57.738860558481" lon="12.949575752785">
        <ele>176.2</ele>
        <time>2019-11-10T10:19:29Z</time>
      </trkpt>
      <trkpt lat="57.738771291246" lon="12.94958706835">
        <ele>175.6</ele>
        <time>2019-11-10T10:19:32Z</time>
      </trkpt>
      <trkpt lat="57.738738434198" lon="12.949642891804">
        <ele>175.4</ele>
        <time>2019-11-10T10:19:35Z</time>
      </trkpt>
      <trkpt lat="57.738730387574" lon="12.949699637267">
        <ele>175.2</ele>
        <time>2019-11-10T10:19:37Z</time>
      </trkpt>
      <trkpt lat="57.738721838036" lon="12.949842381024">
        <ele>175.2</ele>
        <time>2019-11-10T10:19:41Z</time>
      </trkpt>
      <trkpt lat="57.738723011502" lon="12.950067770315">
        <ele>175</ele>
        <time>2019-11-10T10:19:45Z</time>
      </trkpt>
      <trkpt lat="57.738785624295" lon="12.950410925301">
        <ele>175.6</ele>
        <time>2019-11-10T10:19:51Z</time>
      </trkpt>
      <trkpt lat="57.738865419983" lon="12.950634722031">
        <ele>176</ele>
        <time>2019-11-10T10:19:55Z</time>
      </trkpt>
      <trkpt lat="57.738866677268" lon="12.950802108574">
        <ele>176.2</ele>
        <time>2019-11-10T10:19:58Z</time>
      </trkpt>
      <trkpt lat="57.738765759192" lon="12.951084494785">
        <ele>176.8</ele>
        <time>2019-11-10T10:20:04Z</time>
      </trkpt>
      <trkpt lat="57.738754611265" lon="12.951177533875">
        <ele>177</ele>
        <time>2019-11-10T10:20:06Z</time>
      </trkpt>
      <trkpt lat="57.738701637657" lon="12.951377609828">
        <ele>178.4</ele>
        <time>2019-11-10T10:20:11Z</time>
      </trkpt>
      <trkpt lat="57.738686885513" lon="12.951438713879">
        <ele>179.4</ele>
        <time>2019-11-10T10:20:13Z</time>
      </trkpt>
      <trkpt lat="57.738678922708" lon="12.95146712852">
        <ele>179.8</ele>
        <time>2019-11-10T10:20:14Z</time>
      </trkpt>
      <trkpt lat="57.738660985442" lon="12.951490178745">
        <ele>180.6</ele>
        <time>2019-11-10T10:20:16Z</time>
      </trkpt>
      <trkpt lat="57.738556966063" lon="12.951558826506">
        <ele>181.8</ele>
        <time>2019-11-10T10:20:20Z</time>
      </trkpt>
      <trkpt lat="57.738478679117" lon="12.951639879479">
        <ele>182.6</ele>
        <time>2019-11-10T10:20:23Z</time>
      </trkpt>
      <trkpt lat="57.738432830124" lon="12.951928552115">
        <ele>180.6</ele>
        <time>2019-11-10T10:20:31Z</time>
      </trkpt>
      <trkpt lat="57.738441295843" lon="12.952024943965">
        <ele>179.4</ele>
        <time>2019-11-10T10:20:33Z</time>
      </trkpt>
      <trkpt lat="57.738442301671" lon="12.95207816903">
        <ele>178.8</ele>
        <time>2019-11-10T10:20:34Z</time>
      </trkpt>
      <trkpt lat="57.738437607807" lon="12.95213181319">
        <ele>178.4</ele>
        <time>2019-11-10T10:20:35Z</time>
      </trkpt>
      <trkpt lat="57.738438613635" lon="12.952183278056">
        <ele>177.8</ele>
        <time>2019-11-10T10:20:37Z</time>
      </trkpt>
      <trkpt lat="57.738455712711" lon="12.952170956663">
        <ele>177.2</ele>
        <time>2019-11-10T10:20:41Z</time>
      </trkpt>
      <trkpt lat="57.738463591697" lon="12.952157545623">
        <ele>177.2</ele>
        <time>2019-11-10T10:20:42Z</time>
      </trkpt>
      <trkpt lat="57.738483372981" lon="12.952109684974">
        <ele>177</ele>
        <time>2019-11-10T10:20:45Z</time>
      </trkpt>
      <trkpt lat="57.738490078501" lon="12.952047239819">
        <ele>178.8</ele>
        <time>2019-11-10T10:20:49Z</time>
      </trkpt>
      <trkpt lat="57.73847842766" lon="12.951970210158">
        <ele>179.8</ele>
        <time>2019-11-10T10:20:51Z</time>
      </trkpt>
      <trkpt lat="57.738483037705" lon="12.951884379502">
        <ele>181.2</ele>
        <time>2019-11-10T10:20:53Z</time>
      </trkpt>
      <trkpt lat="57.738489407949" lon="12.951843308192">
        <ele>181.6</ele>
        <time>2019-11-10T10:20:54Z</time>
      </trkpt>
      <trkpt lat="57.738521510626" lon="12.951660666591">
        <ele>182.2</ele>
        <time>2019-11-10T10:20:59Z</time>
      </trkpt>
      <trkpt lat="57.738642796719" lon="12.951520605042">
        <ele>182.2</ele>
        <time>2019-11-10T10:21:05Z</time>
      </trkpt>
      <trkpt lat="57.738833652582" lon="12.951489256736">
        <ele>182.6</ele>
        <time>2019-11-10T10:21:11Z</time>
      </trkpt>
      <trkpt lat="57.739017551468" lon="12.951578021057">
        <ele>182.6</ele>
        <time>2019-11-10T10:21:17Z</time>
      </trkpt>
      <trkpt lat="57.739080080442" lon="12.951553713547">
        <ele>182</ele>
        <time>2019-11-10T10:21:20Z</time>
      </trkpt>
      <trkpt lat="57.739090557817" lon="12.951520688861">
        <ele>181</ele>
        <time>2019-11-10T10:21:22Z</time>
      </trkpt>
      <trkpt lat="57.739088294704" lon="12.951503589785">
        <ele>180.2</ele>
        <time>2019-11-10T10:21:23Z</time>
      </trkpt>
      <trkpt lat="57.739086534505" lon="12.951485065786">
        <ele>179.2</ele>
        <time>2019-11-10T10:21:24Z</time>
      </trkpt>
      <trkpt lat="57.739114697689" lon="12.951469140176">
        <ele>177.8</ele>
        <time>2019-11-10T10:21:26Z</time>
      </trkpt>
      <trkpt lat="57.739135652439" lon="12.95146209938">
        <ele>176.8</ele>
        <time>2019-11-10T10:21:28Z</time>
      </trkpt>
      <trkpt lat="57.739240174732" lon="12.951451538186">
        <ele>175.6</ele>
        <time>2019-11-10T10:21:32Z</time>
      </trkpt>
      <trkpt lat="57.739271439219" lon="12.951419686966">
        <ele>175.8</ele>
        <time>2019-11-10T10:21:34Z</time>
      </trkpt>
      <trkpt lat="57.73946162453" lon="12.951274261001">
        <ele>176.2</ele>
        <time>2019-11-10T10:21:41Z</time>
      </trkpt>
      <trkpt lat="57.739520716925" lon="12.951185580499">
        <ele>177</ele>
        <time>2019-11-10T10:21:45Z</time>
      </trkpt>
      <trkpt lat="57.739553154878" lon="12.951149873605">
        <ele>177.4</ele>
        <time>2019-11-10T10:21:47Z</time>
      </trkpt>
      <trkpt lat="57.73957980932" lon="12.951131181968">
        <ele>178.2</ele>
        <time>2019-11-10T10:21:49Z</time>
      </trkpt>
      <trkpt lat="57.73959992588" lon="12.951113244702">
        <ele>179.2</ele>
        <time>2019-11-10T10:21:52Z</time>
      </trkpt>
      <trkpt lat="57.739617779327" lon="12.951088350459">
        <ele>180.2</ele>
        <time>2019-11-10T10:21:55Z</time>
      </trkpt>
      <trkpt lat="57.73962004244" lon="12.951082315491">
        <ele>180.4</ele>
        <time>2019-11-10T10:21:56Z</time>
      </trkpt>
      <trkpt lat="57.739624149571" lon="12.951089356287">
        <ele>180.6</ele>
        <time>2019-11-10T10:21:57Z</time>
      </trkpt>
      <trkpt lat="57.739698077929" lon="12.95111592691">
        <ele>181.2</ele>
        <time>2019-11-10T10:22:04Z</time>
      </trkpt>
      <trkpt lat="57.73973738904" lon="12.951130092321">
        <ele>181.2</ele>
        <time>2019-11-10T10:22:06Z</time>
      </trkpt>
      <trkpt lat="57.739872589087" lon="12.951075777609">
        <ele>179.2</ele>
        <time>2019-11-10T10:22:13Z</time>
      </trkpt>
      <trkpt lat="57.739891029267" lon="12.951071167564">
        <ele>179</ele>
        <time>2019-11-10T10:22:14Z</time>
      </trkpt>
      <trkpt lat="57.739931346206" lon="12.95110335406">
        <ele>178.4</ele>
        <time>2019-11-10T10:22:16Z</time>
      </trkpt>
      <trkpt lat="57.739945176341" lon="12.95111425053">
        <ele>178</ele>
        <time>2019-11-10T10:22:17Z</time>
      </trkpt>
      <trkpt lat="57.739953306784" lon="12.95112347062">
        <ele>177.4</ele>
        <time>2019-11-10T10:22:18Z</time>
      </trkpt>
      <trkpt lat="57.739987756393" lon="12.95111425053">
        <ele>176.8</ele>
        <time>2019-11-10T10:22:20Z</time>
      </trkpt>
      <trkpt lat="57.739999658691" lon="12.951113831435">
        <ele>176.6</ele>
        <time>2019-11-10T10:22:21Z</time>
      </trkpt>
      <trkpt lat="57.740022038364" lon="12.951115256358">
        <ele>176.4</ele>
        <time>2019-11-10T10:22:23Z</time>
      </trkpt>
      <trkpt lat="57.740169643623" lon="12.951032443186">
        <ele>176.4</ele>
        <time>2019-11-10T10:22:33Z</time>
      </trkpt>
      <trkpt lat="57.740215911711" lon="12.950921550649">
        <ele>176.2</ele>
        <time>2019-11-10T10:22:38Z</time>
      </trkpt>
      <trkpt lat="57.740223790697" lon="12.950874779647">
        <ele>175.6</ele>
        <time>2019-11-10T10:22:39Z</time>
      </trkpt>
      <trkpt lat="57.740233429882" lon="12.95081082575">
        <ele>174</ele>
        <time>2019-11-10T10:22:41Z</time>
      </trkpt>
      <trkpt lat="57.740231669683" lon="12.9507479615">
        <ele>173</ele>
        <time>2019-11-10T10:22:43Z</time>
      </trkpt>
      <trkpt lat="57.740212307494" lon="12.950704543258">
        <ele>172.2</ele>
        <time>2019-11-10T10:22:45Z</time>
      </trkpt>
      <trkpt lat="57.74019839354" lon="12.950684426698">
        <ele>171.8</ele>
        <time>2019-11-10T10:22:46Z</time>
      </trkpt>
      <trkpt lat="57.740128991408" lon="12.950608486684">
        <ele>171.8</ele>
        <time>2019-11-10T10:22:49Z</time>
      </trkpt>
      <trkpt lat="57.740091859591" lon="12.950557189456">
        <ele>171</ele>
        <time>2019-11-10T10:22:52Z</time>
      </trkpt>
      <trkpt lat="57.740073922325" lon="12.950505054038">
        <ele>170.6</ele>
        <time>2019-11-10T10:22:54Z</time>
      </trkpt>
      <trkpt lat="57.740054392498" lon="12.950482758184">
        <ele>170.4</ele>
        <time>2019-11-10T10:22:56Z</time>
      </trkpt>
      <trkpt lat="57.740016003396" lon="12.950451409878">
        <ele>170</ele>
        <time>2019-11-10T10:22:59Z</time>
      </trkpt>
      <trkpt lat="57.73997878776" lon="12.950382678298">
        <ele>169.6</ele>
        <time>2019-11-10T10:23:02Z</time>
      </trkpt>
      <trkpt lat="57.739921204107" lon="12.950301960601">
        <ele>168</ele>
        <time>2019-11-10T10:23:06Z</time>
      </trkpt>
      <trkpt lat="57.739888849973" lon="12.950246640061">
        <ele>166.8</ele>
        <time>2019-11-10T10:23:09Z</time>
      </trkpt>
      <trkpt lat="57.739766138957" lon="12.950046899384">
        <ele>167</ele>
        <time>2019-11-10T10:23:17Z</time>
      </trkpt>
      <trkpt lat="57.739745435664" lon="12.949982610211">
        <ele>168</ele>
        <time>2019-11-10T10:23:20Z</time>
      </trkpt>
      <trkpt lat="57.739730767339" lon="12.949958218882">
        <ele>168.4</ele>
        <time>2019-11-10T10:23:22Z</time>
      </trkpt>
      <trkpt lat="57.739710399322" lon="12.949885715447">
        <ele>169.4</ele>
        <time>2019-11-10T10:23:25Z</time>
      </trkpt>
      <trkpt lat="57.739702436517" lon="12.949791251434">
        <ele>170.4</ele>
        <time>2019-11-10T10:23:28Z</time>
      </trkpt>
      <trkpt lat="57.739689444572" lon="12.949538620968">
        <ele>169.2</ele>
        <time>2019-11-10T10:23:34Z</time>
      </trkpt>
      <trkpt lat="57.739687768192" lon="12.949477936012">
        <ele>169</ele>
        <time>2019-11-10T10:23:36Z</time>
      </trkpt>
      <trkpt lat="57.739696066273" lon="12.949415155581">
        <ele>168.2</ele>
        <time>2019-11-10T10:23:39Z</time>
      </trkpt>
      <trkpt lat="57.739683661061" lon="12.949385986569">
        <ele>167</ele>
        <time>2019-11-10T10:23:41Z</time>
      </trkpt>
      <trkpt lat="57.739724397095" lon="12.949343322698">
        <ele>166.2</ele>
        <time>2019-11-10T10:23:48Z</time>
      </trkpt>
      <trkpt lat="57.739827997379" lon="12.94927693805">
        <ele>165.6</ele>
        <time>2019-11-10T10:23:54Z</time>
      </trkpt>
      <trkpt lat="57.739848784491" lon="12.949228071573">
        <ele>164</ele>
        <time>2019-11-10T10:23:56Z</time>
      </trkpt>
      <trkpt lat="57.739852388708" lon="12.94921742656">
        <ele>162.6</ele>
        <time>2019-11-10T10:23:57Z</time>
      </trkpt>
      <trkpt lat="57.739861357341" lon="12.949206027176">
        <ele>161.4</ele>
        <time>2019-11-10T10:23:59Z</time>
      </trkpt>
      <trkpt lat="57.739896477502" lon="12.949221785148">
        <ele>160.4</ele>
        <time>2019-11-10T10:24:02Z</time>
      </trkpt>
      <trkpt lat="57.739915420596" lon="12.949248355771">
        <ele>158.8</ele>
        <time>2019-11-10T10:24:04Z</time>
      </trkpt>
      <trkpt lat="57.739955234621" lon="12.949302670483">
        <ele>157.4</ele>
        <time>2019-11-10T10:24:06Z</time>
      </trkpt>
      <trkpt lat="57.740138295317" lon="12.949415155581">
        <ele>156.4</ele>
        <time>2019-11-10T10:24:11Z</time>
      </trkpt>
      <trkpt lat="57.740336024338" lon="12.949446503887">
        <ele>156.4</ele>
        <time>2019-11-10T10:24:15Z</time>
      </trkpt>
      <trkpt lat="57.740382040969" lon="12.949462597135">
        <ele>156.2</ele>
        <time>2019-11-10T10:24:16Z</time>
      </trkpt>
      <trkpt lat="57.740553283186" lon="12.94948648555">
        <ele>156</ele>
        <time>2019-11-10T10:24:20Z</time>
      </trkpt>
      <trkpt lat="57.740667444664" lon="12.949423956576">
        <ele>156.2</ele>
        <time>2019-11-10T10:24:23Z</time>
      </trkpt>
      <trkpt lat="57.740727123792" lon="12.949322032672">
        <ele>156.2</ele>
        <time>2019-11-10T10:24:25Z</time>
      </trkpt>
      <trkpt lat="57.74081781595" lon="12.948980973161">
        <ele>156</ele>
        <time>2019-11-10T10:24:30Z</time>
      </trkpt>
      <trkpt lat="57.740836088492" lon="12.948911906305">
        <ele>155.6</ele>
        <time>2019-11-10T10:24:31Z</time>
      </trkpt>
      <trkpt lat="57.740882021304" lon="12.948781819217">
        <ele>155.2</ele>
        <time>2019-11-10T10:24:33Z</time>
      </trkpt>
      <trkpt lat="57.740911860868" lon="12.948725660487">
        <ele>155</ele>
        <time>2019-11-10T10:24:34Z</time>
      </trkpt>
      <trkpt lat="57.741052341512" lon="12.948604290575">
        <ele>154.4</ele>
        <time>2019-11-10T10:24:38Z</time>
      </trkpt>
      <trkpt lat="57.741169604293" lon="12.948548634759">
        <ele>156.2</ele>
        <time>2019-11-10T10:24:42Z</time>
      </trkpt>
      <trkpt lat="57.741192822156" lon="12.948555927012">
        <ele>156.6</ele>
        <time>2019-11-10T10:24:44Z</time>
      </trkpt>
      <trkpt lat="57.741198773305" lon="12.948917438359">
        <ele>155.8</ele>
        <time>2019-11-10T10:24:51Z</time>
      </trkpt>
      <trkpt lat="57.741145967335" lon="12.949050962026">
        <ele>157.6</ele>
        <time>2019-11-10T10:24:55Z</time>
      </trkpt>
      <trkpt lat="57.741097519953" lon="12.949091111327">
        <ele>158.6</ele>
        <time>2019-11-10T10:24:59Z</time>
      </trkpt>
      <trkpt lat="57.741077235755" lon="12.949110389697">
        <ele>159</ele>
        <time>2019-11-10T10:25:01Z</time>
      </trkpt>
      <trkpt lat="57.74095276454" lon="12.949225221727">
        <ele>158</ele>
        <time>2019-11-10T10:25:09Z</time>
      </trkpt>
      <trkpt lat="57.740924433718" lon="12.949252881997">
        <ele>157.6</ele>
        <time>2019-11-10T10:25:12Z</time>
      </trkpt>
      <trkpt lat="57.740917476741" lon="12.949260677164">
        <ele>157.4</ele>
        <time>2019-11-10T10:25:13Z</time>
      </trkpt>
      <trkpt lat="57.740913201972" lon="12.949357739566">
        <ele>156.4</ele>
        <time>2019-11-10T10:25:16Z</time>
      </trkpt>
      <trkpt lat="57.74091839875" lon="12.949391518623">
        <ele>156.2</ele>
        <time>2019-11-10T10:25:17Z</time>
      </trkpt>
      <trkpt lat="57.740954021825" lon="12.949518420589">
        <ele>156.2</ele>
        <time>2019-11-10T10:25:22Z</time>
      </trkpt>
      <trkpt lat="57.740991740375" lon="12.94950660211">
        <ele>156.2</ele>
        <time>2019-11-10T10:25:27Z</time>
      </trkpt>
      <trkpt lat="57.741017808084" lon="12.949514062001">
        <ele>156.2</ele>
        <time>2019-11-10T10:25:29Z</time>
      </trkpt>
      <trkpt lat="57.741213776906" lon="12.949625708909">
        <ele>156.2</ele>
        <time>2019-11-10T10:25:36Z</time>
      </trkpt>
      <trkpt lat="57.741343863994" lon="12.94990725693">
        <ele>156.4</ele>
        <time>2019-11-10T10:25:42Z</time>
      </trkpt>
      <trkpt lat="57.741407650253" lon="12.950237084695">
        <ele>156.8</ele>
        <time>2019-11-10T10:25:50Z</time>
      </trkpt>
      <trkpt lat="57.741432125401" lon="12.950360801539">
        <ele>157.2</ele>
        <time>2019-11-10T10:25:54Z</time>
      </trkpt>
      <trkpt lat="57.741404632769" lon="12.950422995237">
        <ele>156.8</ele>
        <time>2019-11-10T10:25:56Z</time>
      </trkpt>
      <trkpt lat="57.741340930329" lon="12.950557943827">
        <ele>155.4</ele>
        <time>2019-11-10T10:25:59Z</time>
      </trkpt>
      <trkpt lat="57.741334476266" lon="12.950619215516">
        <ele>154.8</ele>
        <time>2019-11-10T10:26:00Z</time>
      </trkpt>
      <trkpt lat="57.741334895361" lon="12.950670764201">
        <ele>154.8</ele>
        <time>2019-11-10T10:26:01Z</time>
      </trkpt>
      <trkpt lat="57.741348054944" lon="12.950719714497">
        <ele>154.6</ele>
        <time>2019-11-10T10:26:02Z</time>
      </trkpt>
      <trkpt lat="57.741510663804" lon="12.950869918145">
        <ele>154.4</ele>
        <time>2019-11-10T10:26:11Z</time>
      </trkpt>
      <trkpt lat="57.741699759468" lon="12.950889950886">
        <ele>154.6</ele>
        <time>2019-11-10T10:26:19Z</time>
      </trkpt>
      <trkpt lat="57.741751140515" lon="12.950904116297">
        <ele>154.2</ele>
        <time>2019-11-10T10:26:21Z</time>
      </trkpt>
      <trkpt lat="57.741952892848" lon="12.950879473511">
        <ele>154</ele>
        <time>2019-11-10T10:26:29Z</time>
      </trkpt>
      <trkpt lat="57.742078872805" lon="12.95082423679">
        <ele>155.4</ele>
        <time>2019-11-10T10:26:34Z</time>
      </trkpt>
      <trkpt lat="57.742169062049" lon="12.950762126911">
        <ele>156.2</ele>
        <time>2019-11-10T10:26:38Z</time>
      </trkpt>
      <trkpt lat="57.742325049208" lon="12.950528774815">
        <ele>156.4</ele>
        <time>2019-11-10T10:26:45Z</time>
      </trkpt>
      <trkpt lat="57.742443233998" lon="12.950249070812">
        <ele>155.8</ele>
        <time>2019-11-10T10:26:52Z</time>
      </trkpt>
      <trkpt lat="57.742524538428" lon="12.950177489386">
        <ele>154.4</ele>
        <time>2019-11-10T10:26:56Z</time>
      </trkpt>
      <trkpt lat="57.742578098769" lon="12.950183608173">
        <ele>153</ele>
        <time>2019-11-10T10:26:59Z</time>
      </trkpt>
      <trkpt lat="57.742611961645" lon="12.950163240156">
        <ele>152</ele>
        <time>2019-11-10T10:27:01Z</time>
      </trkpt>
      <trkpt lat="57.742640376286" lon="12.950153014238">
        <ele>150.8</ele>
        <time>2019-11-10T10:27:03Z</time>
      </trkpt>
      <trkpt lat="57.742671976049" lon="12.950126192158">
        <ele>149.2</ele>
        <time>2019-11-10T10:27:05Z</time>
      </trkpt>
      <trkpt lat="57.742699133405" lon="12.950107668159">
        <ele>147.8</ele>
        <time>2019-11-10T10:27:07Z</time>
      </trkpt>
      <trkpt lat="57.742863418645" lon="12.950229708623">
        <ele>147</ele>
        <time>2019-11-10T10:27:14Z</time>
      </trkpt>
      <trkpt lat="57.742928126913" lon="12.950335907296">
        <ele>146.8</ele>
        <time>2019-11-10T10:27:16Z</time>
      </trkpt>
      <trkpt lat="57.743068104643" lon="12.95060127825">
        <ele>146.4</ele>
        <time>2019-11-10T10:27:21Z</time>
      </trkpt>
      <trkpt lat="57.74312283845" lon="12.950729353682">
        <ele>145.6</ele>
        <time>2019-11-10T10:27:24Z</time>
      </trkpt>
      <trkpt lat="57.743192994953" lon="12.950867403575">
        <ele>144.4</ele>
        <time>2019-11-10T10:27:27Z</time>
      </trkpt>
      <trkpt lat="57.743213865884" lon="12.950898332786">
        <ele>144.2</ele>
        <time>2019-11-10T10:27:28Z</time>
      </trkpt>
      <trkpt lat="57.743247477303" lon="12.950924149038">
        <ele>144</ele>
        <time>2019-11-10T10:27:31Z</time>
      </trkpt>
      <trkpt lat="57.743248650769" lon="12.950919036079">
        <ele>143.8</ele>
        <time>2019-11-10T10:27:33Z</time>
      </trkpt>
      <trkpt lat="57.743289051527" lon="12.951079381826">
        <ele>143.4</ele>
        <time>2019-11-10T10:27:46Z</time>
      </trkpt>
      <trkpt lat="57.743297265789" lon="12.951089356287">
        <ele>143.2</ele>
        <time>2019-11-10T10:27:47Z</time>
      </trkpt>
      <trkpt lat="57.743314197227" lon="12.95105976818">
        <ele>142.2</ele>
        <time>2019-11-10T10:27:51Z</time>
      </trkpt>
      <trkpt lat="57.743276143401" lon="12.950945690521">
        <ele>142.8</ele>
        <time>2019-11-10T10:28:01Z</time>
      </trkpt>
      <trkpt lat="57.743255775384" lon="12.95087033724">
        <ele>143.2</ele>
        <time>2019-11-10T10:28:04Z</time>
      </trkpt>
      <trkpt lat="57.743245800923" lon="12.950847873748">
        <ele>143.4</ele>
        <time>2019-11-10T10:28:05Z</time>
      </trkpt>
      <trkpt lat="57.743150833996" lon="12.950642181922">
        <ele>144.8</ele>
        <time>2019-11-10T10:28:09Z</time>
      </trkpt>
      <trkpt lat="57.743143457924" lon="12.950615276023">
        <ele>145.4</ele>
        <time>2019-11-10T10:28:10Z</time>
      </trkpt>
      <trkpt lat="57.743167681615" lon="12.950602032621">
        <ele>145.8</ele>
        <time>2019-11-10T10:28:12Z</time>
      </trkpt>
      <trkpt lat="57.743169274176" lon="12.950590046504">
        <ele>145.8</ele>
        <time>2019-11-10T10:28:13Z</time>
      </trkpt>
      <trkpt lat="57.74311697112" lon="12.950549897203">
        <ele>145.6</ele>
        <time>2019-11-10T10:28:23Z</time>
      </trkpt>
      <trkpt lat="57.742955451907" lon="12.950393155673">
        <ele>145.6</ele>
        <time>2019-11-10T10:28:28Z</time>
      </trkpt>
      <trkpt lat="57.742918068633" lon="12.950363148471">
        <ele>145.8</ele>
        <time>2019-11-10T10:28:29Z</time>
      </trkpt>
      <trkpt lat="57.742839614049" lon="12.950378906443">
        <ele>145.8</ele>
        <time>2019-11-10T10:28:31Z</time>
      </trkpt>
      <trkpt lat="57.742655547525" lon="12.950564984623">
        <ele>144.8</ele>
        <time>2019-11-10T10:28:37Z</time>
      </trkpt>
      <trkpt lat="57.742602238641" lon="12.950638242429">
        <ele>143</ele>
        <time>2019-11-10T10:28:39Z</time>
      </trkpt>
      <trkpt lat="57.742496459063" lon="12.950872516534">
        <ele>142</ele>
        <time>2019-11-10T10:28:44Z</time>
      </trkpt>
      <trkpt lat="57.742423201257" lon="12.951140569696">
        <ele>140.8</ele>
        <time>2019-11-10T10:28:48Z</time>
      </trkpt>
      <trkpt lat="57.742388500191" lon="12.951410383057">
        <ele>139.8</ele>
        <time>2019-11-10T10:28:52Z</time>
      </trkpt>
      <trkpt lat="57.742382129947" lon="12.951532674978">
        <ele>139.2</ele>
        <time>2019-11-10T10:28:54Z</time>
      </trkpt>
      <trkpt lat="57.742388835467" lon="12.95166075041">
        <ele>138.8</ele>
        <time>2019-11-10T10:28:56Z</time>
      </trkpt>
      <trkpt lat="57.742397887919" lon="12.951798884122">
        <ele>138.2</ele>
        <time>2019-11-10T10:28:59Z</time>
      </trkpt>
      <trkpt lat="57.742428230397" lon="12.951839536337">
        <ele>138.2</ele>
        <time>2019-11-10T10:29:02Z</time>
      </trkpt>
      <trkpt lat="57.742392942598" lon="12.95184263764">
        <ele>138</ele>
        <time>2019-11-10T10:29:11Z</time>
      </trkpt>
      <trkpt lat="57.742359163541" lon="12.951854204662">
        <ele>138.2</ele>
        <time>2019-11-10T10:29:13Z</time>
      </trkpt>
      <trkpt lat="57.742319265697" lon="12.952195767087">
        <ele>138.4</ele>
        <time>2019-11-10T10:29:20Z</time>
      </trkpt>
      <trkpt lat="57.742310129426" lon="12.952304145054">
        <ele>138.4</ele>
        <time>2019-11-10T10:29:21Z</time>
      </trkpt>
      <trkpt lat="57.742372406943" lon="12.952448146096">
        <ele>138</ele>
        <time>2019-11-10T10:29:24Z</time>
      </trkpt>
      <trkpt lat="57.742542140418" lon="12.952387544959">
        <ele>137.8</ele>
        <time>2019-11-10T10:29:29Z</time>
      </trkpt>
      <trkpt lat="57.742727045132" lon="12.952355190825">
        <ele>138.4</ele>
        <time>2019-11-10T10:29:34Z</time>
      </trkpt>
      <trkpt lat="57.742769289908" lon="12.952355023187">
        <ele>138.8</ele>
        <time>2019-11-10T10:29:35Z</time>
      </trkpt>
      <trkpt lat="57.742890576001" lon="12.952396010678">
        <ele>139.8</ele>
        <time>2019-11-10T10:29:38Z</time>
      </trkpt>
      <trkpt lat="57.742962660341" lon="12.952568593999">
        <ele>139</ele>
        <time>2019-11-10T10:29:43Z</time>
      </trkpt>
      <trkpt lat="57.742958217934" lon="12.952562894307">
        <ele>138.8</ele>
        <time>2019-11-10T10:29:44Z</time>
      </trkpt>
      <trkpt lat="57.742961151599" lon="12.952546046688">
        <ele>138.6</ele>
        <time>2019-11-10T10:29:45Z</time>
      </trkpt>
      <trkpt lat="57.742972131888" lon="12.95252743887">
        <ele>138.4</ele>
        <time>2019-11-10T10:29:47Z</time>
      </trkpt>
      <trkpt lat="57.742982441625" lon="12.952487960121">
        <ele>138.4</ele>
        <time>2019-11-10T10:29:49Z</time>
      </trkpt>
      <trkpt lat="57.743016472139" lon="12.952447643182">
        <ele>138.2</ele>
        <time>2019-11-10T10:29:51Z</time>
      </trkpt>
      <trkpt lat="57.743042288391" lon="12.952377319041">
        <ele>138.2</ele>
        <time>2019-11-10T10:29:53Z</time>
      </trkpt>
      <trkpt lat="57.743049161549" lon="12.951986722501">
        <ele>138.2</ele>
        <time>2019-11-10T10:30:00Z</time>
      </trkpt>
      <trkpt lat="57.743076486543" lon="12.951693104544">
        <ele>138.6</ele>
        <time>2019-11-10T10:30:07Z</time>
      </trkpt>
      <trkpt lat="57.742914715873" lon="12.951494202057">
        <ele>139</ele>
        <time>2019-11-10T10:30:15Z</time>
      </trkpt>
      <trkpt lat="57.742752107013" lon="12.951328408075">
        <ele>138.6</ele>
        <time>2019-11-10T10:30:22Z</time>
      </trkpt>
      <trkpt lat="57.742568878679" lon="12.951207373439">
        <ele>139.4</ele>
        <time>2019-11-10T10:30:29Z</time>
      </trkpt>
      <trkpt lat="57.742543565341" lon="12.951186670146">
        <ele>139.4</ele>
        <time>2019-11-10T10:30:31Z</time>
      </trkpt>
      <trkpt lat="57.742533842337" lon="12.951152304356">
        <ele>139.8</ele>
        <time>2019-11-10T10:30:34Z</time>
      </trkpt>
      <trkpt lat="57.742536440726" lon="12.95112430881">
        <ele>140</ele>
        <time>2019-11-10T10:30:35Z</time>
      </trkpt>
      <trkpt lat="57.742541637504" lon="12.950973686067">
        <ele>141</ele>
        <time>2019-11-10T10:30:39Z</time>
      </trkpt>
      <trkpt lat="57.742562005521" lon="12.950863547901">
        <ele>142.2</ele>
        <time>2019-11-10T10:30:42Z</time>
      </trkpt>
      <trkpt lat="57.742649512557" lon="12.950604966286">
        <ele>143.4</ele>
        <time>2019-11-10T10:30:49Z</time>
      </trkpt>
      <trkpt lat="57.742714891377" lon="12.950491307722">
        <ele>145.6</ele>
        <time>2019-11-10T10:30:52Z</time>
      </trkpt>
      <trkpt lat="57.742791669581" lon="12.950302295877">
        <ele>146.8</ele>
        <time>2019-11-10T10:30:57Z</time>
      </trkpt>
      <trkpt lat="57.742880098626" lon="12.950089395617">
        <ele>148</ele>
        <time>2019-11-10T10:31:03Z</time>
      </trkpt>
      <trkpt lat="57.74279426797" lon="12.94981337965">
        <ele>148.8</ele>
        <time>2019-11-10T10:31:11Z</time>
      </trkpt>
      <trkpt lat="57.742775408695" lon="12.949787479579">
        <ele>149</ele>
        <time>2019-11-10T10:31:12Z</time>
      </trkpt>
      <trkpt lat="57.742715059015" lon="12.949734757428">
        <ele>150</ele>
        <time>2019-11-10T10:31:15Z</time>
      </trkpt>
      <trkpt lat="57.742662755959" lon="12.949696535964">
        <ele>151.2</ele>
        <time>2019-11-10T10:31:18Z</time>
      </trkpt>
      <trkpt lat="57.742596371311" lon="12.949631324782">
        <ele>152.4</ele>
        <time>2019-11-10T10:31:22Z</time>
      </trkpt>
      <trkpt lat="57.742519760745" lon="12.949524958471">
        <ele>153.6</ele>
        <time>2019-11-10T10:31:26Z</time>
      </trkpt>
      <trkpt lat="57.742461087445" lon="12.949244332459">
        <ele>154</ele>
        <time>2019-11-10T10:31:33Z</time>
      </trkpt>
      <trkpt lat="57.742618164251" lon="12.948980386428">
        <ele>153.8</ele>
        <time>2019-11-10T10:31:40Z</time>
      </trkpt>
      <trkpt lat="57.742730816987" lon="12.948712919999">
        <ele>153</ele>
        <time>2019-11-10T10:31:46Z</time>
      </trkpt>
      <trkpt lat="57.742802901327" lon="12.948642931134">
        <ele>153.4</ele>
        <time>2019-11-10T10:31:50Z</time>
      </trkpt>
      <trkpt lat="57.742918236271" lon="12.948743178658">
        <ele>154.6</ele>
        <time>2019-11-10T10:31:57Z</time>
      </trkpt>
      <trkpt lat="57.742954697536" lon="12.948759020449">
        <ele>154.6</ele>
        <time>2019-11-10T10:31:59Z</time>
      </trkpt>
      <trkpt lat="57.743047904264" lon="12.948894555772">
        <ele>153.6</ele>
        <time>2019-11-10T10:32:05Z</time>
      </trkpt>
      <trkpt lat="57.743062237313" lon="12.948911151934">
        <ele>152.8</ele>
        <time>2019-11-10T10:32:07Z</time>
      </trkpt>
      <trkpt lat="57.743073971973" lon="12.948919366196">
        <ele>152.4</ele>
        <time>2019-11-10T10:32:08Z</time>
      </trkpt>
      <trkpt lat="57.743128454323" lon="12.948933447788">
        <ele>152</ele>
        <time>2019-11-10T10:32:11Z</time>
      </trkpt>
      <trkpt lat="57.743160305543" lon="12.948944092801">
        <ele>151.8</ele>
        <time>2019-11-10T10:32:13Z</time>
      </trkpt>
      <trkpt lat="57.743189977469" lon="12.94899195345">
        <ele>152</ele>
        <time>2019-11-10T10:32:16Z</time>
      </trkpt>
      <trkpt lat="57.743243370172" lon="12.949017015331">
        <ele>151.2</ele>
        <time>2019-11-10T10:32:19Z</time>
      </trkpt>
      <trkpt lat="57.743273964107" lon="12.949046854895">
        <ele>150.4</ele>
        <time>2019-11-10T10:32:21Z</time>
      </trkpt>
      <trkpt lat="57.743308497535" lon="12.949086585101">
        <ele>150.4</ele>
        <time>2019-11-10T10:32:23Z</time>
      </trkpt>
      <trkpt lat="57.743340684031" lon="12.949092787707">
        <ele>151</ele>
        <time>2019-11-10T10:32:25Z</time>
      </trkpt>
      <trkpt lat="57.74343464513" lon="12.949044843239">
        <ele>152</ele>
        <time>2019-11-10T10:32:29Z</time>
      </trkpt>
      <trkpt lat="57.74343883608" lon="12.949042328669">
        <ele>152.2</ele>
        <time>2019-11-10T10:32:31Z</time>
      </trkpt>
      <trkpt lat="57.743470771119" lon="12.949026067783">
        <ele>152.4</ele>
        <time>2019-11-10T10:32:36Z</time>
      </trkpt>
      <trkpt lat="57.743497593199" lon="12.949010645087">
        <ele>152</ele>
        <time>2019-11-10T10:32:38Z</time>
      </trkpt>
      <trkpt lat="57.743527851858" lon="12.949005532128">
        <ele>151.2</ele>
        <time>2019-11-10T10:32:40Z</time>
      </trkpt>
      <trkpt lat="57.743592643945" lon="12.949051129664">
        <ele>149.8</ele>
        <time>2019-11-10T10:32:44Z</time>
      </trkpt>
      <trkpt lat="57.743640588413" lon="12.949056242623">
        <ele>148.4</ele>
        <time>2019-11-10T10:32:46Z</time>
      </trkpt>
      <trkpt lat="57.74368107299" lon="12.949051884035">
        <ele>147.4</ele>
        <time>2019-11-10T10:32:48Z</time>
      </trkpt>
      <trkpt lat="57.743737818453" lon="12.94901039363">
        <ele>145.4</ele>
        <time>2019-11-10T10:32:51Z</time>
      </trkpt>
      <trkpt lat="57.743757851194" lon="12.948994635658">
        <ele>144.4</ele>
        <time>2019-11-10T10:32:52Z</time>
      </trkpt>
      <trkpt lat="57.743765813999" lon="12.948982565722">
        <ele>143.4</ele>
        <time>2019-11-10T10:32:53Z</time>
      </trkpt>
      <trkpt lat="57.74378249398" lon="12.948944763353">
        <ele>142.4</ele>
        <time>2019-11-10T10:32:55Z</time>
      </trkpt>
      <trkpt lat="57.743851309379" lon="12.948801935777">
        <ele>141.6</ele>
        <time>2019-11-10T10:32:59Z</time>
      </trkpt>
      <trkpt lat="57.743834210303" lon="12.948707723221">
        <ele>141.2</ele>
        <time>2019-11-10T10:33:01Z</time>
      </trkpt>
      <trkpt lat="57.743707811251" lon="12.948460960085">
        <ele>140.6</ele>
        <time>2019-11-10T10:33:06Z</time>
      </trkpt>
      <trkpt lat="57.743573197937" lon="12.948164743739">
        <ele>141.2</ele>
        <time>2019-11-10T10:33:12Z</time>
      </trkpt>
      <trkpt lat="57.743396758942" lon="12.947966763261">
        <ele>141</ele>
        <time>2019-11-10T10:33:18Z</time>
      </trkpt>
      <trkpt lat="57.74322845039" lon="12.947790910999">
        <ele>142.2</ele>
        <time>2019-11-10T10:33:23Z</time>
      </trkpt>
      <trkpt lat="57.743196934446" lon="12.947756545209">
        <ele>142.4</ele>
        <time>2019-11-10T10:33:24Z</time>
      </trkpt>
      <trkpt lat="57.743151839824" lon="12.947583458974">
        <ele>142.6</ele>
        <time>2019-11-10T10:33:27Z</time>
      </trkpt>
      <trkpt lat="57.743234066263" lon="12.947322530427">
        <ele>143.4</ele>
        <time>2019-11-10T10:33:32Z</time>
      </trkpt>
      <trkpt lat="57.743277652143" lon="12.947226138577">
        <ele>144.4</ele>
        <time>2019-11-10T10:33:34Z</time>
      </trkpt>
      <trkpt lat="57.743301708196" lon="12.947141481387">
        <ele>144.4</ele>
        <time>2019-11-10T10:33:36Z</time>
      </trkpt>
      <trkpt lat="57.743272120089" lon="12.9470599255">
        <ele>143.2</ele>
        <time>2019-11-10T10:33:39Z</time>
      </trkpt>
      <trkpt lat="57.74325778704" lon="12.947056237464">
        <ele>142.8</ele>
        <time>2019-11-10T10:33:41Z</time>
      </trkpt>
      <trkpt lat="57.743332302131" lon="12.946931514792">
        <ele>142.6</ele>
        <time>2019-11-10T10:33:48Z</time>
      </trkpt>
      <trkpt lat="57.743403883557" lon="12.946618786103">
        <ele>143.4</ele>
        <time>2019-11-10T10:33:53Z</time>
      </trkpt>
      <trkpt lat="57.743435818596" lon="12.946265991932">
        <ele>142.8</ele>
        <time>2019-11-10T10:33:59Z</time>
      </trkpt>
      <trkpt lat="57.743454594052" lon="12.945907917164">
        <ele>143.4</ele>
        <time>2019-11-10T10:34:06Z</time>
      </trkpt>
      <trkpt lat="57.743441937383" lon="12.945740195345">
        <ele>142.4</ele>
        <time>2019-11-10T10:34:10Z</time>
      </trkpt>
      <trkpt lat="57.743435315682" lon="12.945713121808">
        <ele>142.2</ele>
        <time>2019-11-10T10:34:11Z</time>
      </trkpt>
      <trkpt lat="57.743428526343" lon="12.945710607238">
        <ele>142</ele>
        <time>2019-11-10T10:34:12Z</time>
      </trkpt>
      <trkpt lat="57.743403296824" lon="12.945743380467">
        <ele>141.4</ele>
        <time>2019-11-10T10:34:16Z</time>
      </trkpt>
      <trkpt lat="57.743429699809" lon="12.946100365588">
        <ele>142.8</ele>
        <time>2019-11-10T10:34:24Z</time>
      </trkpt>
      <trkpt lat="57.743433639302" lon="12.946144789658">
        <ele>143.4</ele>
        <time>2019-11-10T10:34:25Z</time>
      </trkpt>
      <trkpt lat="57.743395334019" lon="12.946500349856">
        <ele>144.2</ele>
        <time>2019-11-10T10:34:31Z</time>
      </trkpt>
      <trkpt lat="57.743386197748" lon="12.946626916546">
        <ele>144.4</ele>
        <time>2019-11-10T10:34:33Z</time>
      </trkpt>
      <trkpt lat="57.743345210257" lon="12.946975352129">
        <ele>144.4</ele>
        <time>2019-11-10T10:34:39Z</time>
      </trkpt>
      <trkpt lat="57.743242951077" lon="12.947263438032">
        <ele>145.2</ele>
        <time>2019-11-10T10:34:47Z</time>
      </trkpt>
      <trkpt lat="57.743202382681" lon="12.947430656937">
        <ele>144.6</ele>
        <time>2019-11-10T10:34:51Z</time>
      </trkpt>
      <trkpt lat="57.743270024614" lon="12.947689070914">
        <ele>143.4</ele>
        <time>2019-11-10T10:34:56Z</time>
      </trkpt>
      <trkpt lat="57.743413606561" lon="12.947937258973">
        <ele>143</ele>
        <time>2019-11-10T10:35:03Z</time>
      </trkpt>
      <trkpt lat="57.743549644798" lon="12.948214029311">
        <ele>143</ele>
        <time>2019-11-10T10:35:10Z</time>
      </trkpt>
      <trkpt lat="57.743698926437" lon="12.948417877119">
        <ele>142.4</ele>
        <time>2019-11-10T10:35:16Z</time>
      </trkpt>
      <trkpt lat="57.743761120135" lon="12.948482836844">
        <ele>142.4</ele>
        <time>2019-11-10T10:35:19Z</time>
      </trkpt>
      <trkpt lat="57.743929261049" lon="12.948354845231">
        <ele>142.6</ele>
        <time>2019-11-10T10:35:25Z</time>
      </trkpt>
      <trkpt lat="57.743994053136" lon="12.948260884132">
        <ele>143.4</ele>
        <time>2019-11-10T10:35:29Z</time>
      </trkpt>
      <trkpt lat="57.744043506346" lon="12.94828116833">
        <ele>144.4</ele>
        <time>2019-11-10T10:35:33Z</time>
      </trkpt>
      <trkpt lat="57.744057587938" lon="12.948288795859">
        <ele>144.6</ele>
        <time>2019-11-10T10:35:34Z</time>
      </trkpt>
      <trkpt lat="57.744091366995" lon="12.948300195243">
        <ele>146</ele>
        <time>2019-11-10T10:35:38Z</time>
      </trkpt>
      <trkpt lat="57.744125397509" lon="12.948313522464">
        <ele>146.6</ele>
        <time>2019-11-10T10:35:42Z</time>
      </trkpt>
      <trkpt lat="57.744136880712" lon="12.948309415333">
        <ele>147</ele>
        <time>2019-11-10T10:35:44Z</time>
      </trkpt>
      <trkpt lat="57.744153979788" lon="12.948381583492">
        <ele>145.4</ele>
        <time>2019-11-10T10:35:51Z</time>
      </trkpt>
      <trkpt lat="57.74416051767" lon="12.948402119147">
        <ele>144.6</ele>
        <time>2019-11-10T10:35:52Z</time>
      </trkpt>
      <trkpt lat="57.744162780783" lon="12.948441430258">
        <ele>143.8</ele>
        <time>2019-11-10T10:35:53Z</time>
      </trkpt>
      <trkpt lat="57.744171078864" lon="12.948508485458">
        <ele>142.6</ele>
        <time>2019-11-10T10:35:55Z</time>
      </trkpt>
      <trkpt lat="57.744170156855" lon="12.948586940042">
        <ele>142</ele>
        <time>2019-11-10T10:35:59Z</time>
      </trkpt>
      <trkpt lat="57.744088852425" lon="12.948691210878">
        <ele>141.6</ele>
        <time>2019-11-10T10:36:03Z</time>
      </trkpt>
      <trkpt lat="57.743899924399" lon="12.948690121231">
        <ele>142.6</ele>
        <time>2019-11-10T10:36:10Z</time>
      </trkpt>
      <trkpt lat="57.743742763774" lon="12.948510078019">
        <ele>143</ele>
        <time>2019-11-10T10:36:16Z</time>
      </trkpt>
      <trkpt lat="57.74360060675" lon="12.948290556058">
        <ele>142.2</ele>
        <time>2019-11-10T10:36:21Z</time>
      </trkpt>
      <trkpt lat="57.743454174957" lon="12.948093916684">
        <ele>143</ele>
        <time>2019-11-10T10:36:26Z</time>
      </trkpt>
      <trkpt lat="57.743301875834" lon="12.947913957291">
        <ele>143.4</ele>
        <time>2019-11-10T10:36:31Z</time>
      </trkpt>
      <trkpt lat="57.743119066595" lon="12.94774556492">
        <ele>143.2</ele>
        <time>2019-11-10T10:36:37Z</time>
      </trkpt>
      <trkpt lat="57.742937766098" lon="12.94762235099">
        <ele>143.4</ele>
        <time>2019-11-10T10:36:44Z</time>
      </trkpt>
      <trkpt lat="57.74274313838" lon="12.947503495648">
        <ele>143.4</ele>
        <time>2019-11-10T10:36:51Z</time>
      </trkpt>
      <trkpt lat="57.742567286118" lon="12.94734742467">
        <ele>143</ele>
        <time>2019-11-10T10:36:56Z</time>
      </trkpt>
      <trkpt lat="57.742449101328" lon="12.947262096928">
        <ele>143.2</ele>
        <time>2019-11-10T10:37:00Z</time>
      </trkpt>
      <trkpt lat="57.742383722508" lon="12.947250613725">
        <ele>143.8</ele>
        <time>2019-11-10T10:37:03Z</time>
      </trkpt>
      <trkpt lat="57.742266459727" lon="12.94716218468">
        <ele>144.8</ele>
        <time>2019-11-10T10:37:09Z</time>
      </trkpt>
      <trkpt lat="57.742215749232" lon="12.947233849925">
        <ele>145.6</ele>
        <time>2019-11-10T10:37:13Z</time>
      </trkpt>
      <trkpt lat="57.74221172592" lon="12.947259666177">
        <ele>146</ele>
        <time>2019-11-10T10:37:14Z</time>
      </trkpt>
      <trkpt lat="57.742206110047" lon="12.947272071389">
        <ele>146.4</ele>
        <time>2019-11-10T10:37:15Z</time>
      </trkpt>
      <trkpt lat="57.742201919097" lon="12.947284728058">
        <ele>147.2</ele>
        <time>2019-11-10T10:37:16Z</time>
      </trkpt>
      <trkpt lat="57.742200326536" lon="12.947298893469">
        <ele>148</ele>
        <time>2019-11-10T10:37:17Z</time>
      </trkpt>
      <trkpt lat="57.742188005143" lon="12.947307107731">
        <ele>148.6</ele>
        <time>2019-11-10T10:37:18Z</time>
      </trkpt>
      <trkpt lat="57.742173923551" lon="12.947333762173">
        <ele>149.6</ele>
        <time>2019-11-10T10:37:20Z</time>
      </trkpt>
      <trkpt lat="57.742156573018" lon="12.947363937013">
        <ele>150.8</ele>
        <time>2019-11-10T10:37:23Z</time>
      </trkpt>
      <trkpt lat="57.74218155108" lon="12.947545908062">
        <ele>152.2</ele>
        <time>2019-11-10T10:37:29Z</time>
      </trkpt>
      <trkpt lat="57.742237542172" lon="12.94771706646">
        <ele>152</ele>
        <time>2019-11-10T10:37:35Z</time>
      </trkpt>
      <trkpt lat="57.74224944447" lon="12.947744642911">
        <ele>151.2</ele>
        <time>2019-11-10T10:37:37Z</time>
      </trkpt>
      <trkpt lat="57.742273416704" lon="12.947796359234">
        <ele>150.8</ele>
        <time>2019-11-10T10:37:41Z</time>
      </trkpt>
      <trkpt lat="57.742285989554" lon="12.94783357487">
        <ele>150.8</ele>
        <time>2019-11-10T10:37:43Z</time>
      </trkpt>
      <trkpt lat="57.742292527436" lon="12.947853020878">
        <ele>150.8</ele>
        <time>2019-11-10T10:37:45Z</time>
      </trkpt>
      <trkpt lat="57.742310045607" lon="12.947963745777">
        <ele>151.6</ele>
        <time>2019-11-10T10:37:49Z</time>
      </trkpt>
      <trkpt lat="57.742137881381" lon="12.947918734974">
        <ele>151</ele>
        <time>2019-11-10T10:38:00Z</time>
      </trkpt>
      <trkpt lat="57.741997568375" lon="12.947699129194">
        <ele>150</ele>
        <time>2019-11-10T10:38:06Z</time>
      </trkpt>
      <trkpt lat="57.741872678065" lon="12.947454377714">
        <ele>149.2</ele>
        <time>2019-11-10T10:38:10Z</time>
      </trkpt>
      <trkpt lat="57.74184795146" lon="12.947374665845">
        <ele>148.8</ele>
        <time>2019-11-10T10:38:11Z</time>
      </trkpt>
      <trkpt lat="57.741827331986" lon="12.947220271247">
        <ele>147.8</ele>
        <time>2019-11-10T10:38:13Z</time>
      </trkpt>
      <trkpt lat="57.741815429688" lon="12.946893796242">
        <ele>146.6</ele>
        <time>2019-11-10T10:38:17Z</time>
      </trkpt>
      <trkpt lat="57.74180017463" lon="12.946703108017">
        <ele>145.6</ele>
        <time>2019-11-10T10:38:20Z</time>
      </trkpt>
      <trkpt lat="57.741723144969" lon="12.946565141943">
        <ele>144.4</ele>
        <time>2019-11-10T10:38:23Z</time>
      </trkpt>
      <trkpt lat="57.741607893844" lon="12.946383757627">
        <ele>143.2</ele>
        <time>2019-11-10T10:38:27Z</time>
      </trkpt>
      <trkpt lat="57.741546789793" lon="12.946135904844">
        <ele>141.8</ele>
        <time>2019-11-10T10:38:30Z</time>
      </trkpt>
      <trkpt lat="57.7415428503" lon="12.946046050876">
        <ele>141.2</ele>
        <time>2019-11-10T10:38:31Z</time>
      </trkpt>
      <trkpt lat="57.741546454517" lon="12.945963824437">
        <ele>140.6</ele>
        <time>2019-11-10T10:38:32Z</time>
      </trkpt>
      <trkpt lat="57.741556848073" lon="12.945887046233">
        <ele>139.8</ele>
        <time>2019-11-10T10:38:33Z</time>
      </trkpt>
      <trkpt lat="57.741571935493" lon="12.945817308825">
        <ele>139.6</ele>
        <time>2019-11-10T10:38:34Z</time>
      </trkpt>
      <trkpt lat="57.741592219691" lon="12.945757126783">
        <ele>139.4</ele>
        <time>2019-11-10T10:38:35Z</time>
      </trkpt>
      <trkpt lat="57.7416350512" lon="12.945648832635">
        <ele>138.6</ele>
        <time>2019-11-10T10:38:37Z</time>
      </trkpt>
      <trkpt lat="57.741652988466" lon="12.945586052204">
        <ele>137.8</ele>
        <time>2019-11-10T10:38:38Z</time>
      </trkpt>
      <trkpt lat="57.741666399506" lon="12.945522349764">
        <ele>136.8</ele>
        <time>2019-11-10T10:38:39Z</time>
      </trkpt>
      <trkpt lat="57.741679894365" lon="12.945457557677">
        <ele>136.2</ele>
        <time>2019-11-10T10:38:40Z</time>
      </trkpt>
      <trkpt lat="57.74171300287" lon="12.945111888121">
        <ele>135.6</ele>
        <time>2019-11-10T10:38:47Z</time>
      </trkpt>
      <trkpt lat="57.741705040065" lon="12.944885493002">
        <ele>135.2</ele>
        <time>2019-11-10T10:38:50Z</time>
      </trkpt>
      <trkpt lat="57.74172389934" lon="12.94451769523">
        <ele>134.4</ele>
        <time>2019-11-10T10:38:55Z</time>
      </trkpt>
      <trkpt lat="57.741725072806" lon="12.944433205678">
        <ele>134</ele>
        <time>2019-11-10T10:38:56Z</time>
      </trkpt>
      <trkpt lat="57.741720043666" lon="12.944073286892">
        <ele>133.2</ele>
        <time>2019-11-10T10:39:00Z</time>
      </trkpt>
      <trkpt lat="57.741777794957" lon="12.94374153129">
        <ele>133.6</ele>
        <time>2019-11-10T10:39:06Z</time>
      </trkpt>
      <trkpt lat="57.741635470295" lon="12.943616557161">
        <ele>133.4</ele>
        <time>2019-11-10T10:39:13Z</time>
      </trkpt>
      <trkpt lat="57.741619293228" lon="12.943636673721">
        <ele>133.4</ele>
        <time>2019-11-10T10:39:14Z</time>
      </trkpt>
      <trkpt lat="57.741648713697" lon="12.943627453631">
        <ele>133.2</ele>
        <time>2019-11-10T10:39:20Z</time>
      </trkpt>
      <trkpt lat="57.741653072285" lon="12.943589232167">
        <ele>133</ele>
        <time>2019-11-10T10:39:22Z</time>
      </trkpt>
      <trkpt lat="57.741641337625" lon="12.943555369291">
        <ele>132.6</ele>
        <time>2019-11-10T10:39:24Z</time>
      </trkpt>
      <trkpt lat="57.741637314313" lon="12.943531816152">
        <ele>132.4</ele>
        <time>2019-11-10T10:39:25Z</time>
      </trkpt>
      <trkpt lat="57.741616527201" lon="12.943474651594">
        <ele>132</ele>
        <time>2019-11-10T10:39:27Z</time>
      </trkpt>
      <trkpt lat="57.741540503368" lon="12.943425952755">
        <ele>132.4</ele>
        <time>2019-11-10T10:39:32Z</time>
      </trkpt>
      <trkpt lat="57.741502449542" lon="12.943407344937">
        <ele>132.6</ele>
        <time>2019-11-10T10:39:34Z</time>
      </trkpt>
      <trkpt lat="57.741443357147" lon="12.943378762658">
        <ele>132.4</ele>
        <time>2019-11-10T10:39:37Z</time>
      </trkpt>
      <trkpt lat="57.741251579275" lon="12.943327549249">
        <ele>132.8</ele>
        <time>2019-11-10T10:39:43Z</time>
      </trkpt>
      <trkpt lat="57.741224589557" lon="12.943316066046">
        <ele>133</ele>
        <time>2019-11-10T10:39:44Z</time>
      </trkpt>
      <trkpt lat="57.741010851107" lon="12.943359735745">
        <ele>133.2</ele>
        <time>2019-11-10T10:39:49Z</time>
      </trkpt>
      <trkpt lat="57.740963912467" lon="12.94337272769">
        <ele>132.8</ele>
        <time>2019-11-10T10:39:50Z</time>
      </trkpt>
      <trkpt lat="57.74085134355" lon="12.943378092106">
        <ele>132.8</ele>
        <time>2019-11-10T10:39:52Z</time>
      </trkpt>
      <trkpt lat="57.740648166294" lon="12.943269043587">
        <ele>131.8</ele>
        <time>2019-11-10T10:39:56Z</time>
      </trkpt>
      <trkpt lat="57.740598964541" lon="12.94324867557">
        <ele>131.4</ele>
        <time>2019-11-10T10:39:57Z</time>
      </trkpt>
      <trkpt lat="57.740406935212" lon="12.943209364459">
        <ele>131.6</ele>
        <time>2019-11-10T10:40:01Z</time>
      </trkpt>
      <trkpt lat="57.740357984916" lon="12.943196456333">
        <ele>131.4</ele>
        <time>2019-11-10T10:40:02Z</time>
      </trkpt>
      <trkpt lat="57.740262598894" lon="12.94313803449">
        <ele>132.8</ele>
        <time>2019-11-10T10:40:04Z</time>
      </trkpt>
      <trkpt lat="57.740222114317" lon="12.942974671259">
        <ele>133.2</ele>
        <time>2019-11-10T10:40:06Z</time>
      </trkpt>
      <trkpt lat="57.740251031872" lon="12.942810805114">
        <ele>133</ele>
        <time>2019-11-10T10:40:08Z</time>
      </trkpt>
      <trkpt lat="57.740334096501" lon="12.94273067415">
        <ele>133.4</ele>
        <time>2019-11-10T10:40:10Z</time>
      </trkpt>
      <trkpt lat="57.740496118628" lon="12.942932426483">
        <ele>133.4</ele>
        <time>2019-11-10T10:40:14Z</time>
      </trkpt>
      <trkpt lat="57.740640874041" lon="12.943135184644">
        <ele>133</ele>
        <time>2019-11-10T10:40:18Z</time>
      </trkpt>
      <trkpt lat="57.740664846275" lon="12.943150691159">
        <ele>132.6</ele>
        <time>2019-11-10T10:40:19Z</time>
      </trkpt>
    </trkseg>
  </trk>
</gpx>